Terminal Aerodrome Forecast
Issued by NWS Pueblo, CO

Home | Current Version | Previous Version | Text Only | Print | Product List | Glossary On
Versions: 1 2 3 4 5 6 7 8 9 10 11 12
000
FTUS45 KPUB 191736
TAFALS
TAF
KALS 191736Z 1918/2018 24008KT P6SM SCT110 SCT200
     FM192100 25010KT P6SM BKN110
     FM200600 VRB04KT P6SM BKN110
     FM201000 VRB03KT P6SM SCT110 BKN250=

USA.gov is the U.S. government's official web portal to all federal, state and local government web resources and services.